Terminal Aerodrome Forecast
Issued by NWS Tuscon, AZ

Home | Current Version | Previous Version | Text Only | Print | Product List | Glossary On
Versions: 1 2 3 4 5 6 7 8 9 10 11 12 13
394
FTUS45 KTWC 190520
TAFTUS
TAF
KTUS 190520Z 1906/2006 18004KT P6SM SCT250
     FM190700 14007KT P6SM BKN250
     FM191900 23019G29KT P6SM FEW150 BKN250=

USA.gov is the U.S. government's official web portal to all federal, state and local government web resources and services.